Time;durP1;ratioP1;P1;durP2;ratioP2;P2;SDS_P1;SDS_P2;PMS_P1;PMS_P2;Temp;Humidity;BMP_temperature;BMP_pressure;BME280_temperature;BME280_humidity;BME280_pressure;Samples;Min_cycle;Max_cycle;Signal;HPM_P1;HPM_P2
2023/05/23 00:00:12;;;;;;;0.50;0.30;;;;;;;16.24;82.32;95102.16;5073706;28;21122;-60
2023/05/23 00:02:41;;;;;;;0.50;0.40;;;;;;;16.30;81.81;95099.03;5074579;28;20808;-60
2023/05/23 00:05:10;;;;;;;0.40;0.30;;;;;;;16.26;80.66;95068.66;5074233;28;20511;-60
2023/05/23 00:07:39;;;;;;;0.40;0.30;;;;;;;16.45;81.42;95095.13;5073511;28;21169;-60
2023/05/23 00:10:08;;;;;;;0.30;0.20;;;;;;;16.48;80.42;95095.28;5074235;28;20884;-60
2023/05/23 00:12:38;;;;;;;0.40;0.30;;;;;;;16.20;82.30;95095.84;5072996;28;20444;-60
2023/05/23 00:15:08;;;;;;;0.40;0.30;;;;;;;16.17;83.35;95085.75;5074011;28;20926;-60
2023/05/23 00:17:38;;;;;;;0.30;0.20;;;;;;;16.32;83.98;95093.34;5073197;28;20441;-60
2023/05/23 00:20:09;;;;;;;0.37;0.30;;;;;;;16.23;84.25;95052.44;5073171;28;20468;-60
2023/05/23 00:22:41;;;;;;;0.30;0.20;;;;;;;16.70;82.40;95097.09;5073357;28;20434;-60
2023/05/23 00:25:10;;;;;;;0.30;0.20;;;;;;;16.61;80.77;95087.47;5073054;28;20469;-60
2023/05/23 00:27:39;;;;;;;0.40;0.30;;;;;;;16.62;80.49;95089.06;5072183;28;20477;-60
2023/05/23 00:30:08;;;;;;;0.30;0.20;;;;;;;16.57;82.49;95095.34;5073938;28;20442;-60
2023/05/23 00:32:55;;;;;;;0.30;0.20;;;;;;;16.77;81.19;95091.28;5072992;28;21002;-60
2023/05/23 00:35:23;;;;;;;0.47;0.27;;;;;;;16.79;81.25;95097.13;5073694;28;20506;-60
2023/05/23 00:37:54;;;;;;;0.70;0.40;;;;;;;16.61;81.25;95090.16;5074012;28;20477;-60
2023/05/23 00:40:22;;;;;;;0.30;0.20;;;;;;;16.47;82.54;95088.34;5073846;28;20511;-59
2023/05/23 00:42:51;;;;;;;0.30;0.20;;;;;;;16.48;81.82;95081.91;5072975;28;20444;-60
2023/05/23 00:45:19;;;;;;;0.40;0.40;;;;;;;16.58;82.18;95094.25;5060299;28;20468;-60
2023/05/23 00:47:48;;;;;;;0.30;0.20;;;;;;;16.47;82.24;95087.56;5073559;28;20438;-60
2023/05/23 00:50:17;;;;;;;0.40;0.30;;;;;;;16.52;83.16;95085.56;5073813;28;20511;-60
2023/05/23 00:52:48;;;;;;;0.50;0.30;;;;;;;16.58;83.63;95088.88;5073478;28;20438;-60
2023/05/23 00:55:17;;;;;;;0.40;0.33;;;;;;;16.18;85.76;95085.47;5073544;28;20457;-60
2023/05/23 00:57:46;;;;;;;0.40;0.20;;;;;;;16.21;85.42;95086.72;5072546;28;20442;-60
2023/05/23 01:00:15;;;;;;;0.40;0.30;;;;;;;15.81;88.05;95091.28;5073542;28;20855;-60
2023/05/23 01:02:45;;;;;;;0.40;0.40;;;;;;;16.04;87.24;95073.31;5073615;28;20437;-60
2023/05/23 01:05:16;;;;;;;0.30;0.30;;;;;;;16.29;85.62;95088.63;5072477;28;20450;-60
2023/05/23 01:07:45;;;;;;;0.40;0.30;;;;;;;16.40;84.38;95080.00;5073145;28;20441;-60
2023/05/23 01:10:14;;;;;;;0.40;0.30;;;;;;;16.59;81.68;95095.03;5073020;28;20567;-60
2023/05/23 01:13:13;;;;;;;0.30;0.30;;;;;;;16.58;80.96;95080.06;5072477;28;20988;-60
2023/05/23 01:15:49;;;;;;;0.50;0.50;;;;;;;16.52;81.94;95077.53;5072298;28;20441;-61
2023/05/23 01:18:21;;;;;;;0.40;0.30;;;;;;;16.14;85.30;95084.47;5073286;28;20434;-62
2023/05/23 01:20:52;;;;;;;0.40;0.30;;;;;;;16.19;85.48;95078.22;5072739;28;20478;-62
2023/05/23 01:23:39;;;;;;;0.77;0.40;;;;;;;16.14;85.65;95084.47;5072624;28;20441;-62
2023/05/23 01:26:25;;;;;;;0.37;0.27;;;;;;;15.43;87.75;95026.00;5046979;28;20437;-62
2023/05/23 01:29:04;;;;;;;0.40;0.30;;;;;;;15.40;92.83;95080.00;5066357;28;20965;-62
2023/05/23 01:31:36;;;;;;;0.40;0.30;;;;;;;15.22;93.35;95071.88;5052993;28;20521;-62
2023/05/23 01:34:06;;;;;;;0.50;0.40;;;;;;;14.86;97.02;95065.78;5051840;28;20438;-62
2023/05/23 01:36:35;;;;;;;1.27;0.70;;;;;;;14.53;99.19;95041.19;5052062;28;20488;-62
2023/05/23 01:39:03;;;;;;;0.53;0.53;;;;;;;14.46;100.00;95053.34;5052535;28;20938;-63
2023/05/23 01:41:32;;;;;;;0.70;0.70;;;;;;;14.61;100.00;95071.69;5051930;28;20470;-62
2023/05/23 01:44:03;;;;;;;0.53;0.47;;;;;;;14.50;100.00;95054.31;5052474;28;20466;-62
2023/05/23 01:46:34;;;;;;;0.77;0.63;;;;;;;14.42;100.00;95071.03;5052031;28;20427;-62
2023/05/23 01:49:05;;;;;;;0.40;0.30;;;;;;;14.42;100.00;95063.81;5051716;28;20465;-63
2023/05/23 01:51:34;;;;;;;0.40;0.30;;;;;;;14.24;100.00;95053.25;5051683;28;20815;-63
2023/05/23 01:54:02;;;;;;;0.40;0.20;;;;;;;14.19;100.00;95051.50;5052708;28;20434;-63
2023/05/23 01:56:31;;;;;;;0.40;0.30;;;;;;;14.44;98.78;95056.31;5052438;28;20435;-62
2023/05/23 01:59:02;;;;;;;0.57;0.57;;;;;;;14.51;98.35;95066.56;5051404;28;20431;-63
2023/05/23 02:01:30;;;;;;;0.40;0.27;;;;;;;14.70;95.08;95059.22;5051395;28;20478;-63
2023/05/23 02:03:59;;;;;;;0.40;0.30;;;;;;;14.74;93.50;95022.84;5052453;28;20519;-63
2023/05/23 02:06:27;;;;;;;0.40;0.30;;;;;;;15.14;91.01;95059.25;5051838;28;20801;-63
2023/05/23 02:08:56;;;;;;;0.50;0.30;;;;;;;14.05;89.85;94880.16;5051681;28;20426;-63
2023/05/23 02:11:25;;;;;;;0.40;0.20;;;;;;;15.09;91.36;95067.38;5051025;28;20838;-63
2023/05/23 02:13:53;;;;;;;0.40;0.30;;;;;;;14.69;96.74;95070.19;5051976;28;20426;-64
2023/05/23 02:16:24;;;;;;;0.40;0.40;;;;;;;14.61;98.38;95069.03;5051630;28;20655;-64
2023/05/23 02:18:55;;;;;;;0.40;0.30;;;;;;;14.84;93.25;95061.84;5051226;28;20439;-64
2023/05/23 02:21:23;;;;;;;0.40;0.30;;;;;;;14.95;91.30;95053.28;5051325;28;20466;-64
2023/05/23 02:23:51;;;;;;;0.40;0.30;;;;;;;15.01;90.16;95056.63;5052091;28;20426;-64
2023/05/23 02:26:20;;;;;;;3.37;0.30;;;;;;;14.92;89.18;95066.47;5051671;28;20434;-64
2023/05/23 02:28:48;;;;;;;0.40;0.20;;;;;;;14.63;91.47;95067.63;5051361;28;20543;-64
2023/05/23 02:31:17;;;;;;;0.40;0.30;;;;;;;14.51;94.18;95080.69;5051420;28;20418;-64
2023/05/23 02:33:46;;;;;;;0.40;0.30;;;;;;;14.44;95.15;95079.53;5051868;28;20755;-64
2023/05/23 02:36:15;;;;;;;0.40;0.30;;;;;;;14.35;97.01;95075.97;5052109;28;20453;-65
2023/05/23 02:38:43;;;;;;;0.30;0.20;;;;;;;14.30;98.10;95084.84;5051559;28;20422;-64
2023/05/23 02:41:12;;;;;;;0.40;0.40;;;;;;;14.44;97.31;95084.88;5051351;28;20970;-64
2023/05/23 02:43:40;;;;;;;0.40;0.30;;;;;;;14.13;100.00;95084.66;5051585;28;20435;-64
2023/05/23 02:46:09;;;;;;;0.40;0.20;;;;;;;14.21;100.00;95072.50;5050795;28;20463;-64
2023/05/23 02:48:37;;;;;;;0.40;0.30;;;;;;;14.38;100.00;95075.38;5051781;28;20430;-64
2023/05/23 02:51:07;;;;;;;0.37;0.20;;;;;;;14.49;98.24;95072.22;5052071;28;20869;-64
2023/05/23 02:53:35;;;;;;;0.40;0.30;;;;;;;14.52;98.76;95073.50;5051722;28;20431;-64
2023/05/23 02:56:03;;;;;;;0.40;0.30;;;;;;;14.31;99.29;95067.00;5050483;28;20955;-64
2023/05/23 02:58:34;;;;;;;0.40;0.30;;;;;;;14.43;98.21;95072.59;5051590;28;20430;-64
2023/05/23 03:01:02;;;;;;;0.40;0.30;;;;;;;14.39;98.99;95087.63;5051530;28;20435;-64
2023/05/23 03:03:34;;;;;;;0.40;0.20;;;;;;;14.35;99.66;95081.31;5049919;28;20481;-64
2023/05/23 03:06:03;;;;;;;0.57;0.57;;;;;;;14.25;100.00;95086.81;5051302;28;20474;-64
2023/05/23 03:08:33;;;;;;;0.40;0.30;;;;;;;13.95;100.00;95093.53;5051658;28;20466;-64
2023/05/23 03:11:02;;;;;;;2.10;0.97;;;;;;;13.69;100.00;95085.22;5051194;28;20907;-64
2023/05/23 03:13:31;;;;;;;0.40;0.40;;;;;;;13.71;100.00;95067.06;5050758;28;20480;-64
2023/05/23 03:15:59;;;;;;;0.60;0.60;;;;;;;13.55;100.00;95089.72;5049926;28;20431;-64
2023/05/23 03:18:27;;;;;;;0.50;0.40;;;;;;;13.25;100.00;95087.59;5050776;28;20942;-64
2023/05/23 03:20:56;;;;;;;0.40;0.40;;;;;;;13.12;100.00;95097.09;5051334;28;20450;-64
2023/05/23 03:23:24;;;;;;;0.40;0.30;;;;;;;13.12;100.00;95090.97;5051073;28;21071;-65
2023/05/23 03:25:54;;;;;;;0.87;0.87;;;;;;;13.13;100.00;95090.69;5051234;28;20446;-64
2023/05/23 03:28:22;;;;;;;0.90;0.77;;;;;;;13.25;100.00;95093.69;5052622;28;20474;-64
2023/05/23 03:30:51;;;;;;;0.50;0.40;;;;;;;13.32;100.00;95088.78;5055112;28;20434;-64
2023/05/23 03:33:19;;;;;;;1.17;1.07;;;;;;;13.40;100.00;95091.84;5054082;28;20481;-64
2023/05/23 03:35:48;;;;;;;0.70;0.50;;;;;;;13.68;100.00;95096.97;5055181;28;20431;-64
2023/05/23 03:38:16;;;;;;;0.60;0.53;;;;;;;13.90;100.00;95097.09;5055136;28;20431;-64
2023/05/23 03:40:44;;;;;;;0.47;0.40;;;;;;;14.06;100.00;95094.94;5056244;28;20463;-65
2023/05/23 03:43:14;;;;;;;0.50;0.30;;;;;;;14.12;100.00;95099.06;5055825;28;20541;-64
2023/05/23 03:45:43;;;;;;;0.77;0.30;;;;;;;14.36;99.35;95099.69;5054021;28;20469;-65
2023/05/23 03:48:11;;;;;;;0.80;0.30;;;;;;;14.33;99.47;95097.59;5054947;28;20438;-65
2023/05/23 03:50:40;;;;;;;0.40;0.30;;;;;;;14.53;96.21;95099.84;5054519;28;20423;-65
2023/05/23 03:53:08;;;;;;;0.40;0.40;;;;;;;14.52;97.39;95098.25;5054792;28;20931;-65
2023/05/23 03:55:36;;;;;;;0.87;0.87;;;;;;;14.42;98.44;95097.72;5054409;28;20418;-65
2023/05/23 03:58:06;;;;;;;0.80;0.80;;;;;;;14.20;100.00;95100.25;5054288;28;20517;-65
2023/05/23 04:00:35;;;;;;;0.40;0.30;;;;;;;14.21;100.00;95096.50;5053473;28;20431;-65
2023/05/23 04:03:04;;;;;;;0.53;0.50;;;;;;;14.37;99.70;95103.16;5053462;28;20536;-63
2023/05/23 04:05:32;;;;;;;0.50;0.40;;;;;;;14.29;100.00;95109.94;5053070;28;20508;-64
2023/05/23 04:08:01;;;;;;;0.50;0.50;;;;;;;14.04;100.00;95118.38;5054051;28;20452;-64
2023/05/23 04:10:29;;;;;;;0.43;0.27;;;;;;;14.04;100.00;95117.63;5052508;28;20426;-64
2023/05/23 04:12:57;;;;;;;0.40;0.30;;;;;;;14.08;100.00;95113.28;5052747;28;20419;-64
2023/05/23 04:15:26;;;;;;;1.30;0.87;;;;;;;14.12;100.00;95119.59;5053769;28;20497;-64
2023/05/23 04:17:56;;;;;;;0.40;0.30;;;;;;;14.29;100.00;95109.94;5054221;28;20904;-64
2023/05/23 04:20:25;;;;;;;0.57;0.53;;;;;;;14.57;100.00;95114.16;5053026;28;20429;-63
2023/05/23 04:22:53;;;;;;;0.40;0.30;;;;;;;14.85;100.00;95114.91;5053380;28;20509;-63
2023/05/23 04:25:23;;;;;;;1.03;0.50;;;;;;;15.07;98.01;95117.63;5053025;28;20431;-62
2023/05/23 04:27:51;;;;;;;0.40;0.30;;;;;;;15.19;96.57;95107.19;5053717;28;20558;-63
2023/05/23 04:30:19;;;;;;;0.30;0.20;;;;;;;15.30;94.08;95099.75;5053201;28;20480;-63
2023/05/23 04:32:48;;;;;;;0.60;0.60;;;;;;;15.18;92.35;95056.75;5053831;28;20472;-62
2023/05/23 04:35:17;;;;;;;0.50;0.40;;;;;;;15.63;90.58;95102.97;5054361;28;20430;-61
2023/05/23 04:37:46;;;;;;;0.50;0.30;;;;;;;15.77;89.51;95103.66;5054360;28;20795;-61
2023/05/23 04:40:14;;;;;;;0.50;0.37;;;;;;;15.32;89.94;95062.84;5052745;28;20883;-61
2023/05/23 04:42:43;;;;;;;0.33;0.20;;;;;;;15.72;91.66;95111.81;5053877;28;20885;-61
2023/05/23 04:45:12;;;;;;;0.40;0.30;;;;;;;15.97;98.04;95111.16;5054069;28;20910;-60
2023/05/23 04:47:40;;;;;;;0.40;0.30;;;;;;;16.10;95.86;95102.25;5053900;28;20434;-61
2023/05/23 04:50:10;;;;;;;0.40;0.30;;;;;;;16.17;99.85;95110.59;5054123;28;20426;-60
2023/05/23 04:52:39;;;;;;;0.53;0.47;;;;;;;15.98;89.90;95106.59;5053864;28;20434;-61
2023/05/23 04:55:08;;;;;;;0.60;0.50;;;;;;;16.15;100.00;95102.13;5053683;28;20469;-59
2023/05/23 04:57:37;;;;;;;0.73;0.60;;;;;;;16.47;100.00;95100.94;5053958;28;20458;-61
2023/05/23 05:00:09;;;;;;;2.60;0.40;;;;;;;16.21;91.81;95090.19;5053649;28;20437;-59
2023/05/23 05:02:37;;;;;;;0.50;0.40;;;;;;;16.09;89.46;95094.53;5053831;28;20535;-59
2023/05/23 05:05:07;;;;;;;1.73;0.50;;;;;;;15.78;89.52;95065.97;5053584;28;20473;-58
2023/05/23 05:07:35;;;;;;;0.40;0.27;;;;;;;16.64;100.00;95108.28;5053935;28;20434;-57
2023/05/23 05:10:06;;;;;;;0.40;0.30;;;;;;;16.56;91.03;95098.34;5053587;28;20426;-58
2023/05/23 05:12:35;;;;;;;0.30;0.20;;;;;;;16.80;100.00;95106.72;5053323;28;20439;-59
2023/05/23 05:15:04;;;;;;;0.97;0.30;;;;;;;16.78;100.00;95020.59;5053605;28;20426;-59
2023/05/23 05:17:35;;;;;;;0.50;0.30;;;;;;;17.26;88.63;95098.88;5053240;28;20439;-59
2023/05/23 05:20:07;;;;;;;0.30;0.20;;;;;;;17.69;100.00;95110.34;5053093;28;20438;-59
2023/05/23 05:22:36;;;;;;;0.50;0.40;;;;;;;17.90;98.79;95101.63;5052950;28;20445;-59
2023/05/23 05:25:07;;;;;;;0.40;0.30;;;;;;;18.21;88.65;95096.78;5053439;28;20427;-59
2023/05/23 05:27:36;;;;;;;0.73;0.50;;;;;;;17.84;84.00;95102.91;5053023;28;20942;-59
2023/05/23 05:30:07;;;;;;;0.40;0.40;;;;;;;18.16;94.57;95062.09;5053169;28;20457;-60
2023/05/23 05:32:35;;;;;;;0.40;0.30;;;;;;;18.47;82.08;95097.47;5053055;28;20423;-60
2023/05/23 05:35:06;;;;;;;2.13;0.33;;;;;;;18.62;84.49;95075.44;5053107;28;20514;-60
2023/05/23 05:37:34;;;;;;;0.40;0.30;;;;;;;18.93;77.45;95094.66;5052888;28;20962;-54
2023/05/23 05:40:06;;;;;;;0.60;0.60;;;;;;;18.62;75.45;95061.25;5052943;28;20441;-58
2023/05/23 05:42:36;;;;;;;0.80;0.40;;;;;;;18.71;74.98;95094.19;5050871;28;20967;-58
2023/05/23 05:45:05;;;;;;;0.40;0.30;;;;;;;18.57;74.49;95024.63;5068034;28;20446;-58
2023/05/23 05:47:33;;;;;;;0.40;0.30;;;;;;;19.28;73.04;95089.00;5072434;28;20817;-58
2023/05/23 05:50:02;;;;;;;0.60;0.43;;;;;;;19.10;68.74;95085.69;5071839;28;20445;-59
2023/05/23 05:52:30;;;;;;;1.10;0.90;;;;;;;19.18;69.19;95082.16;5072403;28;20438;-59
2023/05/23 05:54:59;;;;;;;0.50;0.50;;;;;;;19.01;69.25;95075.03;5064978;28;20466;-58
2023/05/23 05:57:27;;;;;;;0.80;0.80;;;;;;;19.58;70.91;95074.41;5066050;28;20446;-58
2023/05/23 05:59:57;;;;;;;0.50;0.40;;;;;;;19.71;69.54;95040.28;5072034;28;20926;-58
2023/05/23 06:02:25;;;;;;;0.40;0.30;;;;;;;20.01;69.64;95063.19;5072115;28;20437;-58
2023/05/23 06:04:54;;;;;;;0.43;0.30;;;;;;;19.55;65.19;95067.00;5072364;28;21037;-59
2023/05/23 06:07:22;;;;;;;6.13;0.50;;;;;;;19.34;65.14;95055.47;5072122;28;20445;-61
2023/05/23 06:09:51;;;;;;;0.40;0.30;;;;;;;18.56;63.31;94921.09;5072190;28;20483;-60
2023/05/23 06:12:19;;;;;;;0.50;0.40;;;;;;;19.90;63.04;95054.75;5071922;28;20787;-61
2023/05/23 06:14:47;;;;;;;0.40;0.30;;;;;;;20.19;63.48;95056.44;5045942;28;20450;-61
2023/05/23 06:17:17;;;;;;;0.50;0.40;;;;;;;20.49;60.45;95049.00;5071555;28;20528;-60
2023/05/23 06:19:46;;;;;;;0.40;0.30;;;;;;;20.63;59.45;95054.78;5071974;28;20441;-61
2023/05/23 06:22:14;;;;;;;0.83;0.83;;;;;;;20.80;59.23;95038.38;5071764;28;20472;-61
2023/05/23 06:24:42;;;;;;;0.60;0.60;;;;;;;19.06;58.88;94748.22;5071372;28;20926;-60
2023/05/23 06:27:11;;;;;;;0.70;0.30;;;;;;;21.53;58.55;95049.72;5071572;28;20469;-61
2023/05/23 06:29:39;;;;;;;0.40;0.40;;;;;;;21.82;57.46;95024.28;5070973;28;20441;-61
2023/05/23 06:32:08;;;;;;;0.83;0.83;;;;;;;21.65;56.81;95008.44;5071325;28;20434;-60
2023/05/23 06:34:38;;;;;;;0.40;0.40;;;;;;;21.98;54.04;95044.78;5071460;28;20524;-60
2023/05/23 06:37:06;;;;;;;1.03;0.60;;;;;;;22.58;55.04;95035.44;5071453;28;20438;-61
2023/05/23 06:39:34;;;;;;;0.60;0.50;;;;;;;22.58;54.06;95034.63;5071407;28;20491;-61
2023/05/23 06:42:03;;;;;;;0.70;0.50;;;;;;;22.80;52.70;95028.59;5070619;28;20822;-60
2023/05/23 06:44:31;;;;;;;0.67;0.50;;;;;;;22.88;51.21;95027.63;5070859;28;20484;-60
2023/05/23 06:47:00;;;;;;;0.50;0.47;;;;;;;22.72;52.39;94951.22;5071373;28;20470;-59
2023/05/23 06:49:28;;;;;;;1.73;1.43;;;;;;;22.69;50.25;95022.94;5070887;28;20441;-59
2023/05/23 06:51:58;;;;;;;0.50;0.40;;;;;;;22.99;50.34;95030.56;5071083;28;20481;-59
2023/05/23 06:54:26;;;;;;;0.67;0.67;;;;;;;22.78;47.52;95003.84;5071225;28;20441;-59
2023/05/23 06:56:54;;;;;;;0.57;0.57;;;;;;;22.48;48.32;95019.75;5071245;28;20503;-59
2023/05/23 06:59:23;;;;;;;0.60;0.40;;;;;;;22.51;47.50;95021.78;5070786;28;20438;-61
2023/05/23 07:01:52;;;;;;;0.90;0.90;;;;;;;22.50;46.19;95016.69;5070175;28;20934;-62
2023/05/23 07:04:21;;;;;;;1.20;1.20;;;;;;;21.49;45.93;94741.44;5044843;28;20469;-62
2023/05/23 07:06:51;;;;;;;0.70;0.63;;;;;;;23.19;44.96;94961.84;5071223;28;20971;-62
2023/05/23 07:09:21;;;;;;;0.50;0.30;;;;;;;23.16;45.67;94963.31;5071252;28;20523;-61
2023/05/23 07:11:49;;;;;;;0.50;0.30;;;;;;;22.85;45.17;95004.00;5070883;28;20445;-61
2023/05/23 07:14:19;;;;;;;31.67;1.10;;;;;;;22.77;45.45;94988.00;5071496;28;20508;-61
2023/05/23 07:16:47;;;;;;;0.60;0.60;;;;;;;23.04;45.44;95004.03;5071124;28;20446;-61
2023/05/23 07:19:15;;;;;;;0.40;0.30;;;;;;;23.91;44.68;94997.94;5070897;28;20438;-61
2023/05/23 07:21:44;;;;;;;0.40;0.30;;;;;;;24.19;43.66;94992.22;5070874;28;20429;-62
2023/05/23 07:24:12;;;;;;;0.80;0.80;;;;;;;23.71;43.06;94951.22;5071023;28;20465;-60
2023/05/23 07:26:42;;;;;;;0.70;0.50;;;;;;;23.60;43.11;94984.66;5071030;28;20864;-61
2023/05/23 07:29:10;;;;;;;7.50;1.03;;;;;;;24.11;43.00;94985.16;5070759;28;20445;-60
2023/05/23 07:31:39;;;;;;;0.40;0.33;;;;;;;23.78;42.66;94985.75;5070482;28;20987;-60
2023/05/23 07:34:07;;;;;;;0.50;0.47;;;;;;;24.34;43.10;94940.63;5070598;28;20801;-60
2023/05/23 07:36:36;;;;;;;0.50;0.33;;;;;;;24.59;41.15;94976.22;5070941;28;20465;-60
2023/05/23 07:39:05;;;;;;;5.73;0.87;;;;;;;25.00;41.35;94975.22;5070954;28;20445;-60
2023/05/23 07:41:33;;;;;;;0.60;0.40;;;;;;;24.59;41.16;94973.50;5070503;28;20448;-60
2023/05/23 07:44:03;;;;;;;0.40;0.30;;;;;;;24.67;41.24;94975.16;5070754;28;20441;-60
2023/05/23 07:46:31;;;;;;;0.50;0.43;;;;;;;24.58;39.22;94952.97;5044853;28;20442;-61
2023/05/23 07:48:59;;;;;;;0.60;0.50;;;;;;;24.75;39.48;94965.97;5070183;28;20441;-62
2023/05/23 07:51:28;;;;;;;0.40;0.30;;;;;;;25.03;39.87;94952.81;5070635;28;20434;-61
2023/05/23 07:53:56;;;;;;;1.10;0.40;;;;;;;24.94;39.67;94946.91;5070216;28;20479;-61
2023/05/23 07:56:25;;;;;;;0.73;0.73;;;;;;;25.12;39.73;94966.09;5070782;28;20444;-62
2023/05/23 07:58:53;;;;;;;0.40;0.30;;;;;;;25.78;39.22;94967.97;5070237;28;20453;-62
2023/05/23 08:01:23;;;;;;;0.50;0.40;;;;;;;26.36;37.51;94962.66;5070379;28;20468;-62
2023/05/23 08:03:52;;;;;;;0.40;0.30;;;;;;;26.36;37.43;94966.13;5070542;28;20961;-62
2023/05/23 08:06:20;;;;;;;0.40;0.30;;;;;;;26.27;36.12;94941.25;5071060;28;20440;-62
2023/05/23 08:08:49;;;;;;;0.50;0.40;;;;;;;26.59;37.11;94965.91;5070173;28;20472;-62
2023/05/23 08:11:17;;;;;;;0.40;0.30;;;;;;;26.16;37.31;94964.06;5070795;28;20440;-62
2023/05/23 08:13:45;;;;;;;0.67;0.67;;;;;;;26.14;36.50;94906.59;5071526;28;20445;-62
2023/05/23 08:16:14;;;;;;;0.37;0.27;;;;;;;26.83;37.95;94924.50;5073956;28;20437;-62
2023/05/23 08:18:43;;;;;;;0.80;0.40;;;;;;;27.19;37.59;94949.91;5073648;28;20520;-62
2023/05/23 08:21:12;;;;;;;0.60;0.60;;;;;;;27.13;35.86;94953.38;5074308;28;20453;-62
2023/05/23 08:23:40;;;;;;;0.50;0.40;;;;;;;27.18;35.95;94955.72;5073410;28;20437;-62
2023/05/23 08:26:08;;;;;;;1.43;0.70;;;;;;;26.65;36.02;94911.94;5073985;28;20889;-62
2023/05/23 08:28:37;;;;;;;5.97;0.50;;;;;;;27.86;34.09;94941.91;5072947;28;20537;-63
2023/05/23 08:31:06;;;;;;;1.83;0.37;;;;;;;27.78;34.42;94934.13;5073854;28;20557;-62
2023/05/23 08:33:34;;;;;;;0.50;0.40;;;;;;;28.30;36.30;94925.97;5073564;28;20823;-62
2023/05/23 08:36:04;;;;;;;0.60;0.40;;;;;;;28.37;35.34;94922.44;5073518;28;20456;-63
2023/05/23 08:38:33;;;;;;;0.50;0.40;;;;;;;28.16;35.11;94892.50;5073437;28;20441;-62
2023/05/23 08:41:02;;;;;;;0.50;0.50;;;;;;;27.40;33.18;94922.03;5072877;28;20448;-61
2023/05/23 08:43:37;;;;;;;0.73;0.73;;;;;;;24.91;34.98;94637.78;5073572;28;20532;-62
2023/05/23 08:46:06;;;;;;;0.50;0.40;;;;;;;27.56;34.07;94925.94;5073236;28;20469;-62
2023/05/23 08:48:37;;;;;;;0.50;0.30;;;;;;;28.39;35.04;94919.34;5073382;28;20503;-62
2023/05/23 08:51:09;;;;;;;0.53;0.33;;;;;;;27.96;34.03;94900.28;5073079;28;20503;-62
2023/05/23 08:53:41;;;;;;;0.47;0.30;;;;;;;29.06;34.00;94919.94;5073053;28;20437;-62
2023/05/23 08:56:10;;;;;;;0.50;0.40;;;;;;;29.15;31.97;94873.09;5073264;28;20433;-62
2023/05/23 08:58:41;;;;;;;0.40;0.30;;;;;;;29.88;31.35;94923.03;5072288;28;20437;-62
2023/05/23 09:01:10;;;;;;;0.60;0.40;;;;;;;28.14;30.93;94755.88;5047354;28;20957;-62
2023/05/23 09:03:41;;;;;;;0.50;0.33;;;;;;;29.68;31.20;94900.88;5072392;28;20475;-62
2023/05/23 09:06:11;;;;;;;0.60;0.40;;;;;;;29.28;30.93;94896.84;5072553;28;21027;-63
2023/05/23 09:08:40;;;;;;;0.47;0.40;;;;;;;30.08;31.39;94915.84;5073071;28;20442;-64
2023/05/23 09:11:11;;;;;;;0.40;0.30;;;;;;;29.84;30.22;94908.63;5072817;28;20995;-63
2023/05/23 09:13:40;;;;;;;0.40;0.30;;;;;;;29.86;30.00;94898.06;5072690;28;20441;-65
2023/05/23 09:16:11;;;;;;;0.53;0.53;;;;;;;30.49;29.61;94904.94;5072312;28;20445;-63
2023/05/23 09:18:41;;;;;;;0.50;0.50;;;;;;;29.98;30.19;94908.53;5072510;28;20514;-63
2023/05/23 09:21:12;;;;;;;5.60;1.47;;;;;;;30.67;29.22;94906.31;5072623;28;20448;-64
2023/05/23 09:23:41;;;;;;;0.60;0.60;;;;;;;29.51;29.64;94904.53;5072418;28;20434;-64
2023/05/23 09:26:13;;;;;;;0.40;0.30;;;;;;;30.29;29.27;94873.84;5071896;28;20477;-63
2023/05/23 09:28:43;;;;;;;0.50;0.30;;;;;;;30.01;27.82;94877.63;5072321;28;20475;-63
2023/05/23 09:31:11;;;;;;;0.40;0.30;;;;;;;29.27;29.70;94821.59;5072279;28;20441;-64
2023/05/23 09:33:43;;;;;;;0.40;0.30;;;;;;;29.06;29.08;94898.13;5072484;28;20449;-64
2023/05/23 09:36:13;;;;;;;0.70;0.63;;;;;;;29.05;29.01;94873.94;5072537;28;20437;-64
2023/05/23 09:38:42;;;;;;;0.50;0.30;;;;;;;29.52;29.25;94841.31;5072625;28;20441;-64
2023/05/23 09:41:11;;;;;;;0.80;0.80;;;;;;;29.83;29.30;94888.72;5072277;28;20448;-65
2023/05/23 09:43:41;;;;;;;0.60;0.37;;;;;;;29.76;30.05;94869.63;5072576;28;20473;-64
2023/05/23 09:46:11;;;;;;;0.50;0.40;;;;;;;28.85;29.99;94887.28;5071849;28;20541;-64
2023/05/23 09:48:39;;;;;;;0.73;0.70;;;;;;;28.91;30.21;94891.16;5071584;28;20527;-64
2023/05/23 09:51:10;;;;;;;0.40;0.40;;;;;;;28.25;29.45;94890.16;5072350;28;20433;-64
2023/05/23 09:53:40;;;;;;;0.40;0.30;;;;;;;28.32;30.29;94892.88;5072083;28;21018;-64
2023/05/23 09:56:11;;;;;;;0.70;0.50;;;;;;;25.67;30.53;94635.94;5071958;28;20507;-62
2023/05/23 09:58:44;;;;;;;0.97;0.97;;;;;;;27.44;32.26;94892.84;5071632;28;20433;-61
2023/05/23 10:01:13;;;;;;;0.77;0.50;;;;;;;26.78;31.29;94933.03;5071553;28;20442;-61
2023/05/23 10:03:48;;;;;;;0.80;0.80;;;;;;;25.17;31.16;94672.84;5071362;28;20535;-61
2023/05/23 10:06:23;;;;;;;0.70;0.40;;;;;;;26.15;29.89;94805.72;5072071;28;20495;-60
2023/05/23 10:08:57;;;;;;;0.40;0.30;;;;;;;27.11;30.66;94888.47;5072103;28;20448;-60
2023/05/23 10:11:55;;;;;;;0.50;0.33;;;;;;;27.19;32.01;94883.84;5071944;28;20827;-60
2023/05/23 10:14:24;;;;;;;0.40;0.30;;;;;;;27.30;30.73;94887.38;5049744;28;20499;-60
2023/05/23 10:17:02;;;;;;;0.40;0.30;;;;;;;27.30;30.64;94884.66;5071939;28;20484;-60
2023/05/23 10:19:38;;;;;;;0.60;0.60;;;;;;;26.93;29.24;94841.41;5071470;28;20441;-60
2023/05/23 10:22:10;;;;;;;0.40;0.40;;;;;;;27.23;31.20;94798.31;5071281;28;20448;-59
2023/05/23 10:24:40;;;;;;;0.50;0.50;;;;;;;27.99;28.91;94874.19;5071806;28;20449;-60
2023/05/23 10:27:09;;;;;;;0.40;0.40;;;;;;;27.75;27.65;94817.81;5045465;28;20493;-60
2023/05/23 10:29:38;;;;;;;0.50;0.40;;;;;;;28.03;28.48;94870.31;5071536;28;20441;-59
2023/05/23 10:32:08;;;;;;;0.50;0.50;;;;;;;27.91;29.23;94859.00;5070984;28;20498;-60
2023/05/23 10:34:42;;;;;;;0.40;0.40;;;;;;;27.51;29.01;94874.59;5071284;28;20566;-60
2023/05/23 10:37:17;;;;;;;0.80;0.40;;;;;;;27.09;30.02;94866.31;5069888;28;20468;-59
2023/05/23 10:39:59;;;;;;;0.40;0.40;;;;;;;27.75;30.61;94858.66;5071220;28;20941;-59
2023/05/23 10:42:41;;;;;;;3.80;0.60;;;;;;;29.12;31.05;94863.00;5071160;28;20448;-60
2023/05/23 10:45:20;;;;;;;0.37;0.30;;;;;;;30.67;27.69;94856.28;5070673;28;20797;-61
2023/05/23 10:47:49;;;;;;;0.70;0.70;;;;;;;30.53;28.21;94829.09;5071260;28;20433;-62
2023/05/23 10:50:32;;;;;;;0.73;0.73;;;;;;;31.36;26.20;94796.34;5071595;28;20956;-63
2023/05/23 10:53:02;;;;;;;1.67;0.40;;;;;;;30.33;27.70;94825.41;5044878;28;20448;-62
2023/05/23 10:55:37;;;;;;;0.50;0.40;;;;;;;30.82;28.52;94852.19;5070939;28;20797;-70
2023/05/23 10:58:13;;;;;;;0.40;0.30;;;;;;;30.27;27.31;94848.88;5071345;28;20479;-69
2023/05/23 11:00:53;;;;;;;0.50;0.30;;;;;;;30.73;27.18;94852.72;5071038;28;20433;-67
2023/05/23 11:03:32;;;;;;;0.73;0.57;;;;;;;29.61;28.22;94846.31;5070899;28;20435;-65
2023/05/23 11:06:01;;;;;;;0.40;0.30;;;;;;;29.89;27.66;94856.28;5071167;28;20510;-65
2023/05/23 11:08:38;;;;;;;0.50;0.40;;;;;;;29.94;26.54;94853.88;5070714;28;20442;-65
2023/05/23 11:11:17;;;;;;;0.50;0.40;;;;;;;30.08;28.51;94856.47;5070513;28;20433;-68
2023/05/23 11:14:01;;;;;;;0.63;0.60;;;;;;;30.97;26.46;94839.91;5070615;28;20506;-69
2023/05/23 11:16:31;;;;;;;0.70;0.50;;;;;;;29.44;27.04;94867.13;5071295;28;20502;-66
2023/05/23 11:19:21;;;;;;;0.30;0.30;;;;;;;28.00;27.85;94876.53;5040794;28;20434;-65
2023/05/23 11:21:53;;;;;;;0.60;0.50;;;;;;;27.35;31.39;94863.25;5067818;28;20433;-64
2023/05/23 11:24:22;;;;;;;0.60;0.60;;;;;;;27.13;32.67;94869.03;5070912;28;20445;-63
2023/05/23 11:26:59;;;;;;;0.50;0.47;;;;;;;26.70;34.25;94881.69;5070355;28;20481;-64
2023/05/23 11:29:28;;;;;;;0.40;0.40;;;;;;;27.12;33.86;94867.50;5070782;28;20476;-64
2023/05/23 11:31:57;;;;;;;0.50;0.40;;;;;;;27.56;33.73;94868.75;5045265;28;20892;-64
2023/05/23 11:34:26;;;;;;;1.17;1.07;;;;;;;28.16;33.23;94846.16;5071235;28;20789;-64
2023/05/23 11:36:55;;;;;;;0.80;0.80;;;;;;;28.37;32.02;94867.16;5071037;28;20872;-65
2023/05/23 11:39:23;;;;;;;0.63;0.50;;;;;;;28.15;33.24;94869.94;5070651;28;20441;-64
2023/05/23 11:42:01;;;;;;;0.40;0.30;;;;;;;28.08;33.25;94877.34;5070754;28;20875;-64
2023/05/23 11:44:30;;;;;;;0.50;0.50;;;;;;;28.04;33.37;94862.94;5070640;28;20486;-64